Stanton, Michigan
Current Conditions -  °F | °C
As of 2:53 AM on Friday 31 Oct 2014 (Local Time) from KAMN Reporting Station
Overcast Overcast  
Wind Chill: 40°   Ceiling: 6000
Heat Index: 43°   Visibility: 10mi
Dew Point: 38°   Wind: 6mph
Humidity: 83%   Direction: 200°SSW
Pressure: 29.92"   Gusts: NA
Location:  43.29°N, 85.08°W
Report Text: KAMN 310653Z AUTO 20005KT 10SM SCT039 BKN060 OVC075 06/04 A2992 RMK AO2 T00620035
Loading
Personal Weather Stations






























Interactive Weather Map New forecast layout! Learn more

10-Day Weather Forecast

Advertisements
Track Severe Weather on mobile